createdAt,value
2023-11-26T00:00:27.113Z,101692.56
2023-11-26T00:02:54.312Z,101695.53
2023-11-26T00:05:21.506Z,101690.78
2023-11-26T00:07:48.735Z,101689.59
2023-11-26T00:10:16.006Z,101685.44
2023-11-26T00:12:43.313Z,101686.22
2023-11-26T00:15:13.455Z,101692.56
2023-11-26T00:17:41.017Z,101692.16
2023-11-26T00:20:09.128Z,101691.75
2023-11-26T00:22:36.230Z,101685.22
2023-11-26T00:25:03.219Z,101684.44
2023-11-26T00:27:30.163Z,101689.94
2023-11-26T00:29:57.087Z,101692.91
2023-11-26T00:32:24.233Z,101690.13
2023-11-26T00:34:51.261Z,101691.72
2023-11-26T00:37:18.536Z,101691.53
2023-11-26T00:39:45.496Z,101691.53
2023-11-26T00:42:12.255Z,101696.69
2023-11-26T00:44:39.133Z,101698.25
2023-11-26T00:47:06.439Z,101680.66
2023-11-26T00:49:33.433Z,101691.72
2023-11-26T00:52:00.338Z,101688.56
2023-11-26T00:54:27.191Z,101690.13
2023-11-26T00:56:54.225Z,101692.69
2023-11-26T00:59:21.249Z,101687.97
2023-11-26T01:01:48.331Z,101684.59
2023-11-26T01:04:15.514Z,101688.75
2023-11-26T01:06:42.527Z,101685.41
2023-11-26T01:09:09.892Z,101696.47
2023-11-26T01:11:38.733Z,101685.41
2023-11-26T01:14:07.703Z,101693.28
2023-11-26T01:16:34.861Z,101695.84
2023-11-26T01:19:01.872Z,101684.97
2023-11-26T01:21:28.803Z,101695.25
2023-11-26T01:23:55.758Z,101697.22
2023-11-26T01:26:22.781Z,101694.06
2023-11-26T01:28:49.907Z,101701.94
2023-11-26T01:31:16.914Z,101702.16
2023-11-26T01:33:43.888Z,101705.72
2023-11-26T01:36:11.466Z,101712.81
2023-11-26T01:38:38.728Z,101711.84
2023-11-26T01:41:06.012Z,101711.25
2023-11-26T01:43:33.149Z,101713.00
2023-11-26T01:46:13.940Z,101711.84
2023-11-26T01:48:41.728Z,101710.06
2023-11-26T01:51:11.927Z,101710.06
2023-11-26T01:53:43.570Z,101711.63
2023-11-26T01:56:10.563Z,101709.88
2023-11-26T01:58:37.891Z,101705.53
2023-11-26T02:01:05.129Z,101706.91
2023-11-26T02:03:32.255Z,101716.22
2023-11-26T02:05:59.526Z,101709.88
2023-11-26T02:08:28.258Z,101710.66
2023-11-26T02:10:56.263Z,101714.03
2023-11-26T02:13:23.195Z,101711.28
2023-11-26T02:15:50.152Z,101714.63
2023-11-26T02:18:17.188Z,101707.91
2023-11-26T02:20:44.122Z,101705.94
2023-11-26T02:23:11.077Z,101701.59
2023-11-26T02:25:38.049Z,101699.97
2023-11-26T02:28:08.798Z,101701.75
2023-11-26T02:30:35.728Z,101696.03
2023-11-26T02:33:02.803Z,101698.00
2023-11-26T02:35:29.800Z,101698.00
2023-11-26T02:37:57.297Z,101702.34
2023-11-26T02:40:26.017Z,101701.75
2023-11-26T02:42:53.144Z,101696.81
2023-11-26T02:45:20.149Z,101697.19
2023-11-26T02:47:47.482Z,101696.97
2023-11-26T02:50:14.824Z,101698.78
2023-11-26T02:52:41.829Z,101689.50
2023-11-26T02:55:09.796Z,101692.84
2023-11-26T02:57:36.755Z,101685.31
2023-11-26T03:00:09.939Z,101682.56
2023-11-26T03:02:37.013Z,101688.31
2023-11-26T03:05:07.501Z,101687.53
2023-11-26T03:07:35.966Z,101688.50
2023-11-26T03:10:22.356Z,101687.53
2023-11-26T03:13:07.929Z,101694.22
2023-11-26T03:15:38.460Z,101695.22
2023-11-26T03:18:06.716Z,101690.09
2023-11-26T03:20:33.739Z,101699.19
2023-11-26T03:23:00.751Z,101693.25
2023-11-26T03:25:27.722Z,101689.50
2023-11-26T03:27:55.672Z,101695.44
2023-11-26T03:30:22.638Z,101692.50
2023-11-26T03:32:49.539Z,101697.41
2023-11-26T03:35:18.012Z,101696.25
2023-11-26T03:37:45.001Z,101707.13
2023-11-26T03:40:12.504Z,101701.59
2023-11-26T03:42:40.475Z,101714.25
2023-11-26T03:45:08.095Z,101713.06
2023-11-26T03:47:36.050Z,101719.63
2023-11-26T03:50:06.889Z,101710.13
2023-11-26T03:52:34.623Z,101713.28
2023-11-26T03:55:01.598Z,101714.88
2023-11-26T03:57:28.564Z,101719.63
2023-11-26T03:59:55.503Z,101706.78
2023-11-26T04:02:22.582Z,101711.53
2023-11-26T04:04:52.421Z,101715.50
2023-11-26T04:07:20.098Z,101715.88
2023-11-26T04:09:48.418Z,101709.38
2023-11-26T04:12:15.475Z,101707.41
2023-11-26T04:15:06.014Z,101705.66
2023-11-26T04:17:34.033Z,101710.41
2023-11-26T04:20:06.912Z,101719.31
2023-11-26T04:22:34.767Z,101711.00
2023-11-26T04:25:02.759Z,101709.63
2023-11-26T04:27:29.684Z,101710.03
2023-11-26T04:29:56.671Z,101714.97
2023-11-26T04:32:23.654Z,101712.19
2023-11-26T04:34:50.697Z,101715.97
2023-11-26T04:37:19.130Z,101713.97
2023-11-26T04:39:47.056Z,101716.19
2023-11-26T04:42:14.042Z,101710.03
2023-11-26T04:44:40.879Z,101717.19
2023-11-26T04:47:09.107Z,101712.03
2023-11-26T04:49:36.261Z,101712.41
2023-11-26T04:52:03.640Z,101705.28
2023-11-26T04:54:30.565Z,101706.88
2023-11-26T04:56:57.524Z,101712.41
2023-11-26T04:59:24.576Z,101717.16
2023-11-26T05:01:55.988Z,101718.34
2023-11-26T05:04:23.750Z,101725.84
2023-11-26T05:06:50.661Z,101721.91
2023-11-26T05:09:18.301Z,101718.75
2023-11-26T05:11:47.238Z,101720.72
2023-11-26T05:14:14.367Z,101716.75
2023-11-26T05:16:42.909Z,101714.38
2023-11-26T05:19:09.851Z,101717.91
2023-11-26T05:21:36.741Z,101729.78
2023-11-26T05:24:05.723Z,101727.59
2023-11-26T05:26:34.086Z,101723.84
2023-11-26T05:29:01.164Z,101724.41
2023-11-26T05:31:28.197Z,101725.59
2023-11-26T05:33:55.768Z,101718.47
2023-11-26T05:36:24.369Z,101724.00
2023-11-26T05:38:51.276Z,101726.19
2023-11-26T05:41:21.544Z,101719.44
2023-11-26T05:43:48.527Z,101718.25
2023-11-26T05:46:15.660Z,101716.47
2023-11-26T05:48:43.424Z,101713.91
2023-11-26T05:51:10.803Z,101721.41
2023-11-26T05:53:37.933Z,101715.84
2023-11-26T05:56:08.497Z,101721.00
2023-11-26T05:58:35.589Z,101705.94
2023-11-26T06:01:02.569Z,101705.53
2023-11-26T06:03:29.612Z,101710.66
2023-11-26T06:05:56.665Z,101706.91
2023-11-26T06:08:23.644Z,101706.50
2023-11-26T06:10:50.634Z,101707.09
2023-11-26T06:13:17.597Z,101712.63
2023-11-26T06:15:44.600Z,101703.88
2023-11-26T06:18:12.002Z,101705.88
2023-11-26T06:20:38.910Z,101704.66
2023-11-26T06:23:06.031Z,101710.19
2023-11-26T06:25:32.924Z,101706.63
2023-11-26T06:27:59.888Z,101706.41
2023-11-26T06:30:26.899Z,101711.16
2023-11-26T06:32:55.089Z,101709.75
2023-11-26T06:35:23.046Z,101711.31
2023-11-26T06:37:50.227Z,101708.75
2023-11-26T06:40:17.526Z,101707.78
2023-11-26T06:42:44.883Z,101703.19
2023-11-26T06:45:12.560Z,101706.38
2023-11-26T06:47:40.249Z,101710.09
2023-11-26T06:50:08.348Z,101706.50
2023-11-26T06:52:36.606Z,101712.44
2023-11-26T06:55:03.933Z,101708.91
2023-11-26T06:57:31.069Z,101705.34
2023-11-26T06:59:58.071Z,101708.50
2023-11-26T07:02:25.231Z,101718.38
2023-11-26T07:04:52.503Z,101708.06
2023-11-26T07:07:21.442Z,101712.81
2023-11-26T07:09:49.194Z,101711.81
2023-11-26T07:12:16.285Z,101709.22
2023-11-26T07:14:45.724Z,101708.44
2023-11-26T07:17:13.817Z,101715.16
2023-11-26T07:19:44.026Z,101713.59
2023-11-26T07:22:12.466Z,101710.59
2023-11-26T07:24:42.668Z,101711.19
2023-11-26T07:27:09.902Z,101710.41
2023-11-26T07:29:36.873Z,101714.34
2023-11-26T07:32:04.494Z,101702.03
2023-11-26T07:34:32.354Z,101720.47
2023-11-26T07:36:59.524Z,101726.19
2023-11-26T07:39:27.806Z,101732.16
2023-11-26T07:41:55.089Z,101733.34
2023-11-26T07:44:22.199Z,101737.28
2023-11-26T07:46:49.269Z,101724.75
2023-11-26T07:49:16.318Z,101732.06
2023-11-26T07:51:43.477Z,101733.44
2023-11-26T07:54:19.073Z,101730.25
2023-11-26T07:56:51.133Z,101735.19
2023-11-26T07:59:18.261Z,101737.16
2023-11-26T08:01:51.348Z,101730.78
2023-11-26T08:04:19.068Z,101734.72
2023-11-26T08:06:51.089Z,101725.56
2023-11-26T08:09:19.018Z,101725.72
2023-11-26T08:11:47.797Z,101731.03
2023-11-26T08:14:15.770Z,101717.72
2023-11-26T08:16:48.081Z,101718.66
2023-11-26T08:19:19.508Z,101720.59
2023-11-26T08:21:47.007Z,101716.59
2023-11-26T08:24:20.049Z,101719.34
2023-11-26T08:26:48.253Z,101708.56
2023-11-26T08:29:17.905Z,101720.06
2023-11-26T08:31:45.911Z,101723.78
2023-11-26T08:34:16.524Z,101720.59
2023-11-26T08:36:47.379Z,101720.72
2023-11-26T08:39:28.121Z,101717.06
2023-11-26T08:41:55.689Z,101722.94
2023-11-26T08:44:22.786Z,101722.09
2023-11-26T08:46:49.748Z,101718.88
2023-11-26T08:49:22.127Z,101719.34
2023-11-26T08:51:49.432Z,101715.91
2023-11-26T08:54:16.569Z,101717.63
2023-11-26T08:56:44.367Z,101721.34
2023-11-26T08:59:11.271Z,101725.66
2023-11-26T09:01:41.122Z,101724.78
2023-11-26T09:04:08.581Z,101726.72
2023-11-26T09:06:35.667Z,101721.69
2023-11-26T09:09:02.738Z,101723.38
2023-11-26T09:11:29.789Z,101724.31
2023-11-26T09:13:59.350Z,101721.88
2023-11-26T09:16:27.060Z,101725.59
2023-11-26T09:18:54.074Z,101726.94
2023-11-26T09:21:22.121Z,101727.09
2023-11-26T09:23:49.239Z,101725.63
2023-11-26T09:26:16.361Z,101726.75
2023-11-26T09:28:45.530Z,101726.09
2023-11-26T09:31:16.118Z,101730.38
2023-11-26T09:33:43.131Z,101726.91
2023-11-26T09:36:10.525Z,101719.03
2023-11-26T09:38:40.509Z,101717.56
2023-11-26T09:41:08.587Z,101716.91
2023-11-26T09:43:35.623Z,101720.63
2023-11-26T09:46:03.343Z,101716.59
2023-11-26T09:48:30.518Z,101720.31
2023-11-26T09:50:58.149Z,101717.03
2023-11-26T09:53:25.902Z,101725.16
2023-11-26T09:55:53.498Z,101718.50
2023-11-26T09:58:20.414Z,101713.09
2023-11-26T10:00:47.384Z,101718.84
2023-11-26T10:03:15.057Z,101729.56
2023-11-26T10:05:42.589Z,101724.38
2023-11-26T10:08:30.209Z,101721.31
2023-11-26T10:10:57.469Z,101709.72
2023-11-26T10:13:37.869Z,101715.00
2023-11-26T10:16:05.304Z,101696.97
2023-11-26T10:18:42.844Z,101698.09
2023-11-26T10:21:10.191Z,101694.84
2023-11-26T10:23:41.281Z,101693.91
2023-11-26T10:26:27.553Z,101693.22
2023-11-26T10:29:13.772Z,101695.13
2023-11-26T10:32:08.380Z,101695.25
2023-11-26T10:34:37.152Z,101690.13
2023-11-26T10:37:21.437Z,101692.84
2023-11-26T10:39:55.004Z,101696.56
2023-11-26T10:42:21.995Z,101690.91
2023-11-26T10:44:55.056Z,101687.84
2023-11-26T10:47:22.851Z,101680.19
2023-11-26T10:49:55.826Z,101685.44
2023-11-26T10:52:47.622Z,101680.25
2023-11-26T10:55:19.409Z,101681.91
2023-11-26T10:57:52.895Z,101673.34
2023-11-26T11:00:21.092Z,101679.66
2023-11-26T11:02:48.976Z,101667.56
2023-11-26T11:05:18.403Z,101669.94
2023-11-26T11:07:45.781Z,101674.69
2023-11-26T11:10:40.480Z,101669.50
2023-11-26T11:13:15.578Z,101672.63
2023-11-26T11:15:43.639Z,101669.09
2023-11-26T11:18:29.052Z,101671.09
2023-11-26T11:21:12.055Z,101669.69
2023-11-26T11:23:42.002Z,101670.78
2023-11-26T11:26:10.777Z,101664.34
2023-11-26T11:28:49.130Z,101659.69
2023-11-26T11:31:21.310Z,101657.88
2023-11-26T11:33:57.500Z,101668.81
2023-11-26T11:36:45.909Z,101662.13
2023-11-26T11:39:15.121Z,101662.75
2023-11-26T11:42:04.351Z,101671.09
2023-11-26T11:44:36.477Z,101671.16
2023-11-26T11:47:08.213Z,101680.06
2023-11-26T11:49:47.397Z,101674.63
2023-11-26T11:52:16.177Z,101676.78
2023-11-26T11:55:00.880Z,101673.94
2023-11-26T11:57:29.763Z,101668.88
2023-11-26T11:59:57.451Z,101658.28
2023-11-26T12:02:27.739Z,101660.41
2023-11-26T12:04:56.149Z,101660.88
2023-11-26T12:07:32.456Z,101655.75
2023-11-26T12:10:03.091Z,101660.41
2023-11-26T12:12:30.518Z,101654.91
2023-11-26T12:14:57.759Z,101654.91
2023-11-26T12:17:24.933Z,101655.22
2023-11-26T12:19:51.993Z,101649.53
2023-11-26T12:22:19.212Z,101640.19
2023-11-26T12:24:46.174Z,101643.31
2023-11-26T12:27:24.340Z,101631.91
2023-11-26T12:29:51.571Z,101634.50
2023-11-26T12:32:27.445Z,101633.94
2023-11-26T12:34:57.258Z,101639.47
2023-11-26T12:37:24.548Z,101644.66
2023-11-26T12:39:52.729Z,101637.63
2023-11-26T12:42:19.889Z,101642.28
2023-11-26T12:44:47.357Z,101639.13
2023-11-26T12:47:14.274Z,101632.38
2023-11-26T12:49:42.210Z,101637.03
2023-11-26T12:52:10.074Z,101637.03
2023-11-26T12:54:38.810Z,101624.06
2023-11-26T12:57:06.604Z,101619.63
2023-11-26T12:59:49.540Z,101624.59
2023-11-26T13:02:17.346Z,101627.97
2023-11-26T13:04:44.571Z,101628.75
2023-11-26T13:07:11.632Z,101624.81
2023-11-26T13:09:49.315Z,101627.66
2023-11-26T13:12:16.819Z,101624.75
2023-11-26T13:14:45.192Z,101622.94
2023-11-26T13:17:12.365Z,101626.56
2023-11-26T13:19:39.409Z,101619.22
2023-11-26T13:22:06.498Z,101625.47
2023-11-26T13:24:33.521Z,101624.69
2023-11-26T13:27:00.473Z,101621.06
2023-11-26T13:29:29.035Z,101617.19
2023-11-26T13:31:56.027Z,101614.59
2023-11-26T13:34:23.050Z,101616.94
2023-11-26T13:36:51.504Z,101613.34
2023-11-26T13:39:21.717Z,101613.66
2023-11-26T13:41:48.957Z,101615.22
2023-11-26T13:44:15.867Z,101607.44
2023-11-26T13:46:43.718Z,101612.63
2023-11-26T13:49:13.171Z,101605.88
2023-11-26T13:51:40.308Z,101603.75
2023-11-26T13:54:07.405Z,101604.53
2023-11-26T13:56:34.375Z,101602.16
2023-11-26T13:59:01.473Z,101602.66
2023-11-26T14:01:28.853Z,101593.28
2023-11-26T14:03:58.756Z,101596.34
2023-11-26T14:06:28.200Z,101595.81
2023-11-26T14:08:55.318Z,101598.41
2023-11-26T14:11:22.620Z,101591.09
2023-11-26T14:13:49.509Z,101592.13
2023-11-26T14:16:16.681Z,101593.38
2023-11-26T14:18:44.393Z,101595.72
2023-11-26T14:21:13.695Z,101592.59
2023-11-26T14:23:40.757Z,101590.00
2023-11-26T14:26:08.035Z,101582.47
2023-11-26T14:28:35.013Z,101586.28
2023-11-26T14:31:02.555Z,101590.16
2023-11-26T14:33:31.467Z,101585.19
2023-11-26T14:35:58.462Z,101586.25
2023-11-26T14:38:26.692Z,101584.09
2023-11-26T14:40:54.269Z,101581.75
2023-11-26T14:43:21.351Z,101575.78
2023-11-26T14:45:48.735Z,101572.63
2023-11-26T14:48:15.665Z,101572.09
2023-11-26T14:50:45.188Z,101565.78
2023-11-26T14:53:14.447Z,101570.44
2023-11-26T14:55:42.940Z,101567.28
2023-11-26T14:58:10.019Z,101564.16
2023-11-26T15:00:37.156Z,101550.84
2023-11-26T15:03:04.417Z,101569.03
2023-11-26T15:05:31.474Z,101555.72
2023-11-26T15:07:58.445Z,101556.75
2023-11-26T15:10:25.446Z,101559.25
2023-11-26T15:12:52.395Z,101561.31
2023-11-26T15:15:19.573Z,101565.91
2023-11-26T15:17:46.573Z,101558.41
2023-11-26T15:20:14.538Z,101559.16
2023-11-26T15:22:43.143Z,101557.03
2023-11-26T15:25:13.332Z,101559.88
2023-11-26T15:27:40.692Z,101559.09
2023-11-26T15:30:10.290Z,101561.13
2023-11-26T15:32:38.395Z,101552.78
2023-11-26T15:35:05.881Z,101554.59
2023-11-26T15:37:32.896Z,101550.47
2023-11-26T15:39:59.967Z,101549.66
2023-11-26T15:42:27.167Z,101540.09
2023-11-26T15:44:53.936Z,101529.38
2023-11-26T15:47:20.848Z,101538.16
2023-11-26T15:49:47.746Z,101536.63
2023-11-26T15:52:14.734Z,101534.25
2023-11-26T15:54:42.693Z,101531.66
2023-11-26T15:57:09.956Z,101534.25
2023-11-26T15:59:36.927Z,101521.50
2023-11-26T16:02:04.391Z,101525.16
2023-11-26T16:04:31.574Z,101527.19
2023-11-26T16:06:58.543Z,101537.56
2023-11-26T16:09:26.654Z,101531.28
2023-11-26T16:11:53.817Z,101526.88
2023-11-26T16:14:20.927Z,101522.94
2023-11-26T16:16:59.607Z,101516.66
2023-11-26T16:19:34.749Z,101511.47
2023-11-26T16:22:02.228Z,101511.69
2023-11-26T16:24:35.649Z,101513.50
2023-11-26T16:27:05.381Z,101503.59
2023-11-26T16:29:32.530Z,101496.03
2023-11-26T16:31:59.445Z,101497.06
2023-11-26T16:34:26.546Z,101495.72
2023-11-26T16:36:54.518Z,101497.53
2023-11-26T16:39:21.940Z,101493.13
2023-11-26T16:41:55.138Z,101491.56
2023-11-26T16:44:24.142Z,101491.47
2023-11-26T16:46:51.380Z,101487.09
2023-11-26T16:49:18.602Z,101492.75
2023-11-26T16:51:47.637Z,101489.59
2023-11-26T16:54:14.791Z,101494.78
2023-11-26T16:56:45.966Z,101487.22
2023-11-26T16:59:13.203Z,101481.50
2023-11-26T17:01:40.720Z,101485.69
2023-11-26T17:04:08.064Z,101477.34
2023-11-26T17:06:36.697Z,101475.53
2023-11-26T17:09:04.216Z,101480.50
2023-11-26T17:11:31.200Z,101477.34
2023-11-26T17:13:58.266Z,101478.34
2023-11-26T17:16:26.119Z,101476.25
2023-11-26T17:18:53.218Z,101479.84
2023-11-26T17:21:21.431Z,101471.50
2023-11-26T17:23:51.698Z,101470.72
2023-11-26T17:26:23.623Z,101467.59
2023-11-26T17:28:50.746Z,101465.22
2023-11-26T17:31:25.698Z,101469.63
2023-11-26T17:33:53.864Z,101478.41
2023-11-26T17:36:21.321Z,101464.13
2023-11-26T17:38:48.469Z,101470.88
2023-11-26T17:41:15.463Z,101467.97
2023-11-26T17:43:42.449Z,101457.84
2023-11-26T17:46:09.534Z,101465.59
2023-11-26T17:48:36.660Z,101465.06
2023-11-26T17:51:03.842Z,101463.50
2023-11-26T17:53:30.906Z,101455.94
2023-11-26T17:55:57.880Z,101455.19
2023-11-26T17:58:25.059Z,101453.59
2023-11-26T18:00:52.446Z,101452.03
2023-11-26T18:03:19.829Z,101443.72
2023-11-26T18:05:46.955Z,101439.75
2023-11-26T18:08:14.106Z,101447.78
2023-11-26T18:10:41.090Z,101448.56
2023-11-26T18:13:08.068Z,101450.38
2023-11-26T18:15:35.061Z,101444.63
2023-11-26T18:18:02.087Z,101446.19
2023-11-26T18:20:29.519Z,101435.06
2023-11-26T18:22:56.493Z,101440.69
2023-11-26T18:25:23.593Z,101439.91
2023-11-26T18:27:50.628Z,101435.50
2023-11-26T18:30:17.820Z,101442.50
2023-11-26T18:32:44.795Z,101429.78
2023-11-26T18:35:14.188Z,101423.81
2023-11-26T18:37:41.465Z,101420.44
2023-11-26T18:40:11.386Z,101421.44
2023-11-26T18:42:38.658Z,101418.09
2023-11-26T18:45:06.345Z,101410.53
2023-11-26T18:47:33.557Z,101415.94
2023-11-26T18:50:00.562Z,101411.56
2023-11-26T18:52:27.645Z,101413.34
2023-11-26T18:54:57.371Z,101404.03
2023-11-26T18:57:26.921Z,101400.66
2023-11-26T18:59:55.565Z,101394.69
2023-11-26T19:02:22.727Z,101401.44
2023-11-26T19:04:49.898Z,101399.06
2023-11-26T19:07:16.885Z,101394.13
2023-11-26T19:09:44.242Z,101396.72
2023-11-26T19:12:11.302Z,101395.16
2023-11-26T19:14:38.781Z,101393.13
2023-11-26T19:17:05.886Z,101389.97
2023-11-26T19:19:32.964Z,101394.38
2023-11-26T19:22:00.370Z,101395.16
2023-11-26T19:24:27.639Z,101386.06
2023-11-26T19:26:54.574Z,101381.88
2023-11-26T19:29:22.482Z,101390.69
2023-11-26T19:31:49.738Z,101387.00
2023-11-26T19:34:16.709Z,101382.25
2023-11-26T19:36:43.839Z,101385.06
2023-11-26T19:39:10.842Z,101381.94
2023-11-26T19:41:41.194Z,101379.56
2023-11-26T19:44:08.181Z,101376.44
2023-11-26T19:46:40.867Z,101375.66
2023-11-26T19:49:08.069Z,101370.47
2023-11-26T19:51:36.629Z,101369.38
2023-11-26T19:54:04.054Z,101372.44
2023-11-26T19:56:31.138Z,101362.31
2023-11-26T19:58:58.092Z,101365.34
2023-11-26T20:01:26.102Z,101365.59
2023-11-26T20:03:54.267Z,101364.22
2023-11-26T20:06:21.767Z,101360.88
2023-11-26T20:08:48.778Z,101355.13
2023-11-26T20:11:15.815Z,101358.72
2023-11-26T20:13:43.195Z,101350.41
2023-11-26T20:16:14.465Z,101350.88
2023-11-26T20:18:42.645Z,101343.56
2023-11-26T20:21:09.991Z,101346.41
2023-11-26T20:23:36.941Z,101345.59
2023-11-26T20:26:04.015Z,101343.56
2023-11-26T20:28:31.001Z,101335.03
2023-11-26T20:31:08.150Z,101331.19
2023-11-26T20:33:40.048Z,101320.84
2023-11-26T20:36:27.721Z,101323.97
2023-11-26T20:38:54.876Z,101322.41
2023-11-26T20:41:21.918Z,101315.66
2023-11-26T20:43:48.786Z,101303.75
2023-11-26T20:46:23.457Z,101306.91
2023-11-26T20:48:51.326Z,101309.47
2023-11-26T20:51:22.447Z,101304.31
2023-11-26T20:53:49.647Z,101294.19
2023-11-26T20:56:24.200Z,101293.41
2023-11-26T20:58:51.080Z,101289.78
2023-11-26T21:01:18.335Z,101291.38
2023-11-26T21:03:46.979Z,101282.84
2023-11-26T21:06:14.907Z,101277.66
2023-11-26T21:08:44.590Z,101284.63
2023-11-26T21:11:13.658Z,101282.84
2023-11-26T21:13:41.217Z,101279.44
2023-11-26T21:16:08.701Z,101276.06
2023-11-26T21:18:35.972Z,101282.03
2023-11-26T21:21:03.518Z,101283.59
2023-11-26T21:23:31.240Z,101284.63
2023-11-26T21:25:59.232Z,101276.63
2023-11-26T21:28:26.853Z,101275.06
2023-11-26T21:30:54.036Z,101269.91
2023-11-26T21:33:21.313Z,101265.50
2023-11-26T21:35:48.471Z,101265.50
2023-11-26T21:38:15.353Z,101248.94
2023-11-26T21:40:52.944Z,101246.34
2023-11-26T21:43:24.503Z,101244.56
2023-11-26T21:45:52.455Z,101239.16
2023-11-26T21:48:20.202Z,101233.19
2023-11-26T21:50:47.690Z,101233.19
2023-11-26T21:53:14.700Z,101219.47
2023-11-26T21:55:41.709Z,101228.25
2023-11-26T21:58:08.764Z,101222.06
2023-11-26T22:00:35.863Z,101216.88
2023-11-26T22:03:03.300Z,101215.84
2023-11-26T22:05:30.224Z,101216.88
2023-11-26T22:07:57.290Z,101206.53
2023-11-26T22:10:24.331Z,101213.25
2023-11-26T22:12:51.654Z,101207.09
2023-11-26T22:15:19.010Z,101206.84
2023-11-26T22:17:46.377Z,101197.28
2023-11-26T22:20:13.593Z,101203.00
2023-11-26T22:22:43.505Z,101198.38
2023-11-26T22:25:11.441Z,101188.03
2023-11-26T22:27:38.421Z,101186.00
2023-11-26T22:30:08.609Z,101187.03
2023-11-26T22:32:36.847Z,101181.59
2023-11-26T22:35:03.918Z,101171.78
2023-11-26T22:37:31.080Z,101169.75
2023-11-26T22:39:58.014Z,101167.97
2023-11-26T22:42:24.981Z,101164.84
2023-11-26T22:44:51.981Z,101154.47
2023-11-26T22:47:19.282Z,101158.63
2023-11-26T22:49:48.784Z,101153.22
2023-11-26T22:52:15.844Z,101149.31
2023-11-26T22:54:42.823Z,101142.53
2023-11-26T22:57:09.727Z,101147.72
2023-11-26T22:59:36.834Z,101135.81
2023-11-26T23:02:08.189Z,101129.84
2023-11-26T23:04:36.100Z,101117.16
2023-11-26T23:07:03.076Z,101120.97
2023-11-26T23:09:29.939Z,101119.19
2023-11-26T23:11:56.751Z,101110.88
2023-11-26T23:14:23.737Z,101107.25
2023-11-26T23:16:50.610Z,101107.81
2023-11-26T23:19:17.574Z,101100.28
2023-11-26T23:21:44.543Z,101095.38
2023-11-26T23:24:11.670Z,101091.75
2023-11-26T23:26:38.577Z,101090.19
2023-11-26T23:29:06.446Z,101092.78
2023-11-26T23:31:33.459Z,101089.94
2023-11-26T23:34:00.582Z,101082.97
2023-11-26T23:36:27.723Z,101076.22
2023-11-26T23:38:56.184Z,101075.44
2023-11-26T23:41:23.155Z,101071.03
2023-11-26T23:43:50.014Z,101072.63
2023-11-26T23:46:17.101Z,101055.03
2023-11-26T23:48:44.459Z,101050.88
2023-11-26T23:51:11.516Z,101049.88
2023-11-26T23:53:38.547Z,101041.84
2023-11-26T23:56:06.338Z,101039.53
2023-11-26T23:58:34.040Z,101029.41
